CheckWX is a tool to help pilots better visualize weather data.  It is not intended as a substitute for an official pre-flight weather briefing.

05:35:23 UTC

TBPB METAR
Sir Grantley Adams International Airport
Bridgetown, Barbados
Current

35 mins ago

TBPB 180500Z 08010KT 9999 SCT018 BKN036 27/24 Q1015 NOSIG
Observed
Aug-18 @ 05:00 UTC
Wind
  • 080° at 10 KTS
Visibility
10,000+ meters
Flight Rules
VFR
Cloud Levels
  • Scattered at 1,800' AGL
  • Broken at 3,600' AGL
Temperature
27°C / 81°F
Dewpoint
24°C / 75°F
Heat Index
31°C / 87°F
Humidity
84%
Altimeter
29.97" Hg
Pressure
1014.92 hPa
Previous

2 hours ago

TBPB 180400Z 09012KT 9999 VCSH SCT018 BKN036 27/24 Q1016 NOSIG
Observed
Aug-18 @ 04:00 UTC
Wind
  • 090° at 12 KTS
Visibility
10,000+ meters
Flight Rules
VFR
Cloud Levels
  • Scattered at 1,800' AGL
  • Broken at 3,600' AGL
Temperature
27°C / 81°F
Dewpoint
24°C / 75°F
Heat Index
31°C / 87°F
Humidity
84%
Altimeter
30" Hg
Pressure
1015.92 hPa
Previous

3 hours ago

TBPB 180300Z 09012KT 9999 VCSH SCT018 BKN036 27/24 Q1016 NOSIG
Observed
Aug-18 @ 03:00 UTC
Wind
  • 090° at 12 KTS
Visibility
10,000+ meters
Flight Rules
VFR
Cloud Levels
  • Scattered at 1,800' AGL
  • Broken at 3,600' AGL
Temperature
27°C / 81°F
Dewpoint
24°C / 75°F
Heat Index
31°C / 87°F
Humidity
84%
Altimeter
30" Hg
Pressure
1015.92 hPa